Time;durP1;ratioP1;P1;durP2;ratioP2;P2;SDS_P1;SDS_P2;PMS_P1;PMS_P2;Temp;Humidity;BMP_temperature;BMP_pressure;BME280_temperature;BME280_humidity;BME280_pressure;Samples;Min_cycle;Max_cycle;Signal;HPM_P1;HPM_P2
2022/03/11 00:00:45;;;;;;;14.35;9.20;;;5.20;79.50;;;;;;5030756;28;20067;-68
2022/03/11 00:03:13;;;;;;;16.60;10.77;;;5.10;79.80;;;;;;5031933;28;20112;-68
2022/03/11 00:05:39;;;;;;;14.48;9.73;;;5.10;79.90;;;;;;5030877;28;20129;-68
2022/03/11 00:08:06;;;;;;;13.80;8.90;;;5.00;79.90;;;;;;5064150;28;20447;-68
2022/03/11 00:10:32;;;;;;;14.95;10.55;;;5.00;80.30;;;;;;5030783;28;20072;-68
2022/03/11 00:12:58;;;;;;;17.50;10.93;;;5.00;80.40;;;;;;5030476;28;20041;-68
2022/03/11 00:15:24;;;;;;;13.70;10.02;;;5.00;80.50;;;;;;5030834;28;20045;-68
2022/03/11 00:17:51;;;;;;;14.05;9.25;;;5.00;80.80;;;;;;5027510;28;20056;-68
2022/03/11 00:20:19;;;;;;;13.27;9.20;;;5.00;81.20;;;;;;5030436;28;20498;-68
2022/03/11 00:22:49;;;;;;;16.80;10.10;;;4.90;81.20;;;;;;5030640;28;20444;-68
2022/03/11 00:25:16;;;;;;;14.02;9.60;;;5.00;81.60;;;;;;5030639;28;20037;-69
2022/03/11 00:27:42;;;;;;;15.75;10.10;;;4.90;81.70;;;;;;5053483;28;20120;-68
2022/03/11 00:30:08;;;;;;;17.27;10.57;;;4.90;81.70;;;;;;5082259;28;20128;-69
2022/03/11 00:32:34;;;;;;;14.25;9.73;;;4.90;82.10;;;;;;5084024;28;20048;-68
2022/03/11 00:35:00;;;;;;;14.43;9.65;;;4.90;82.20;;;;;;5051511;28;20374;-68
2022/03/11 00:37:26;;;;;;;15.98;10.18;;;4.90;82.50;;;;;;5050494;28;20493;-69
2022/03/11 00:39:52;;;;;;;15.68;9.85;;;4.90;82.60;;;;;;5050014;28;20546;-68
2022/03/11 00:42:18;;;;;;;14.13;10.23;;;4.90;82.60;;;;;;5050204;28;20037;-68
2022/03/11 00:44:44;;;;;;;14.80;10.60;;;4.90;83.00;;;;;;5051290;28;20164;-68
2022/03/11 00:47:10;;;;;;;13.77;9.98;;;4.90;82.80;;;;;;5054383;28;20044;-68
2022/03/11 00:49:37;;;;;;;14.93;9.80;;;4.90;83.10;;;;;;5070709;28;20037;-68
2022/03/11 00:52:04;;;;;;;16.65;9.77;;;4.90;83.10;;;;;;5053847;28;20055;-68
2022/03/11 00:54:30;;;;;;;15.70;9.88;;;4.90;83.40;;;;;;5054978;28;20045;-69
2022/03/11 00:56:56;;;;;;;19.23;11.00;;;4.90;83.50;;;;;;5053821;28;20211;-69
2022/03/11 00:59:22;;;;;;;16.02;10.43;;;4.90;83.90;;;;;;5086037;28;20401;-68
2022/03/11 01:01:48;;;;;;;15.25;9.80;;;4.90;83.80;;;;;;5053727;28;20114;-68
2022/03/11 01:04:14;;;;;;;15.20;10.63;;;4.90;84.00;;;;;;5054956;28;20483;-68
2022/03/11 01:06:40;;;;;;;16.15;10.07;;;4.90;83.90;;;;;;5087401;28;20047;-68
2022/03/11 01:09:07;;;;;;;14.80;9.85;;;4.90;84.20;;;;;;5070168;28;20500;-68
2022/03/11 01:11:33;;;;;;;14.73;10.10;;;4.90;84.40;;;;;;5053519;28;20080;-69
2022/03/11 01:13:59;;;;;;;15.68;10.30;;;4.90;84.30;;;;;;5053580;28;20401;-68
2022/03/11 01:16:25;;;;;;;17.08;9.85;;;4.90;84.80;;;;;;5053545;28;20441;-69
2022/03/11 01:18:51;;;;;;;14.35;9.93;;;4.90;84.60;;;;;;5053208;28;20137;-67
2022/03/11 01:21:17;;;;;;;15.18;9.60;;;4.80;84.90;;;;;;5086800;28;20052;-68
2022/03/11 01:23:43;;;;;;;15.77;9.73;;;4.90;85.20;;;;;;5069869;28;20493;-70
2022/03/11 01:26:11;;;;;;;24.13;10.48;;;4.90;85.20;;;;;;5053187;28;20090;-68
2022/03/11 01:28:41;;;;;;;15.63;10.38;;;4.90;85.70;;;;;;5051072;28;20493;-69
2022/03/11 01:31:14;;;;;;;16.77;9.98;;;4.90;85.60;;;;;;5053433;28;20053;-69
2022/03/11 01:33:41;;;;;;;15.65;9.77;;;4.90;85.70;;;;;;5053504;28;20444;-69
2022/03/11 01:36:11;;;;;;;13.77;9.52;;;5.00;85.60;;;;;;5053181;28;20413;-69
2022/03/11 01:38:38;;;;;;;15.77;10.15;;;4.90;85.60;;;;;;5054380;28;20103;-69
2022/03/11 01:41:03;;;;;;;14.02;10.18;;;4.90;86.00;;;;;;5052907;28;20489;-69
2022/03/11 01:43:30;;;;;;;15.07;9.43;;;5.00;86.00;;;;;;5052760;28;20090;-69
2022/03/11 01:45:57;;;;;;;16.38;10.25;;;4.90;86.10;;;;;;5036191;28;20079;-68
2022/03/11 01:48:23;;;;;;;14.27;10.00;;;4.90;86.10;;;;;;5053046;28;20041;-69
2022/03/11 01:50:49;;;;;;;13.90;9.27;;;4.90;86.20;;;;;;5052617;28;20056;-69
2022/03/11 01:53:15;;;;;;;15.02;9.10;;;4.90;86.70;;;;;;5052987;28;20049;-68
2022/03/11 01:55:41;;;;;;;17.45;10.75;;;4.90;86.80;;;;;;5053824;28;20523;-69
2022/03/11 01:58:08;;;;;;;14.82;9.55;;;4.90;87.10;;;;;;5050232;28;20051;-70
2022/03/11 02:00:38;;;;;;;14.38;9.52;;;4.90;87.00;;;;;;5051889;28;20049;-69
2022/03/11 02:03:05;;;;;;;13.60;9.30;;;4.90;87.70;;;;;;5052702;28;20497;-69
2022/03/11 02:05:31;;;;;;;14.85;9.98;;;4.90;87.70;;;;;;5052589;28;20037;-69
2022/03/11 02:08:00;;;;;;;15.57;10.63;;;4.90;87.90;;;;;;5052701;28;20392;-68
2022/03/11 02:10:29;;;;;;;15.65;10.10;;;4.80;88.30;;;;;;5052283;28;20094;-69
2022/03/11 02:12:57;;;;;;;14.93;10.25;;;4.80;88.50;;;;;;5035991;28;20522;-69
2022/03/11 02:15:24;;;;;;;17.02;10.02;;;4.80;88.90;;;;;;5052401;28;20405;-69
2022/03/11 02:17:50;;;;;;;13.68;9.30;;;4.80;89.40;;;;;;5052285;28;20064;-69
2022/03/11 02:20:16;;;;;;;14.25;9.52;;;4.70;90.00;;;;;;5052151;28;20052;-69
2022/03/11 02:22:43;;;;;;;14.50;9.27;;;4.70;90.20;;;;;;5052170;28;20033;-69
2022/03/11 02:25:10;;;;;;;14.07;9.90;;;4.70;90.40;;;;;;5053230;28;20033;-69
2022/03/11 02:27:38;;;;;;;19.17;10.20;;;4.70;90.40;;;;;;5051919;28;20051;-69
2022/03/11 02:30:17;;;;;;;16.70;9.63;;;4.70;90.40;;;;;;5049491;28;20036;-69
2022/03/11 02:32:43;;;;;;;17.25;11.38;;;4.60;90.80;;;;;;5052395;28;20444;-69
2022/03/11 02:35:09;;;;;;;17.52;10.00;;;4.60;90.80;;;;;;5053209;28;20033;-69
2022/03/11 02:37:35;;;;;;;16.83;9.57;;;4.60;91.00;;;;;;5085248;28;20232;-71
2022/03/11 02:40:02;;;;;;;14.90;9.95;;;4.60;91.20;;;;;;5085114;28;20052;-70
2022/03/11 02:42:28;;;;;;;14.50;9.73;;;4.60;91.30;;;;;;5051716;28;20041;-69
2022/03/11 02:44:53;;;;;;;13.32;9.32;;;4.60;91.20;;;;;;5082446;28;20178;-69
2022/03/11 02:47:19;;;;;;;12.98;9.18;;;4.60;91.50;;;;;;5053071;28;20044;-69
2022/03/11 02:49:45;;;;;;;14.68;9.75;;;4.60;91.80;;;;;;5085328;28;20045;-69
2022/03/11 02:52:11;;;;;;;14.40;9.43;;;4.60;91.70;;;;;;5051509;28;20044;-69
2022/03/11 02:54:37;;;;;;;15.30;10.05;;;4.60;92.00;;;;;;5052650;28;20437;-68
2022/03/11 02:57:03;;;;;;;14.98;9.15;;;4.60;92.00;;;;;;5085039;28;20044;-69
2022/03/11 02:59:29;;;;;;;15.45;9.20;;;4.50;92.20;;;;;;5050232;28;20036;-69
2022/03/11 03:01:54;;;;;;;13.70;9.13;;;4.60;92.60;;;;;;5051248;28;20041;-69
2022/03/11 03:04:20;;;;;;;14.77;9.38;;;4.50;92.60;;;;;;5051485;28;20489;-71
2022/03/11 03:06:46;;;;;;;13.35;9.60;;;4.50;92.80;;;;;;5051497;28;20461;-69
2022/03/11 03:09:12;;;;;;;13.93;9.95;;;4.50;92.90;;;;;;5068155;28;20393;-69
2022/03/11 03:11:37;;;;;;;15.80;9.70;;;4.50;93.20;;;;;;5051108;28;20045;-69
2022/03/11 03:14:03;;;;;;;15.43;10.27;;;4.40;93.50;;;;;;5051025;28;20118;-69
2022/03/11 03:16:29;;;;;;;16.80;10.73;;;4.40;93.80;;;;;;5067977;28;20060;-69
2022/03/11 03:18:55;;;;;;;16.27;10.55;;;4.40;94.10;;;;;;5084334;28;20064;-69
2022/03/11 03:21:22;;;;;;;14.10;9.75;;;4.30;94.50;;;;;;5050954;28;20045;-69
2022/03/11 03:23:48;;;;;;;18.33;9.15;;;4.30;94.90;;;;;;5052316;28;20040;-70
2022/03/11 03:26:14;;;;;;;15.55;10.05;;;4.30;95.50;;;;;;5084390;28;20069;-69
2022/03/11 03:28:40;;;;;;;13.82;9.70;;;4.30;95.40;;;;;;5067736;28;20143;-69
2022/03/11 03:31:06;;;;;;;15.40;10.18;;;4.30;95.70;;;;;;5031327;28;20401;-69
2022/03/11 03:33:31;;;;;;;15.30;9.57;;;4.20;96.00;;;;;;5032357;28;20477;-70
2022/03/11 03:35:57;;;;;;;19.40;10.93;;;4.20;96.40;;;;;;5030804;28;20120;-69
2022/03/11 03:38:23;;;;;;;15.35;9.57;;;4.10;97.00;;;;;;5032039;28;20175;-69
2022/03/11 03:40:49;;;;;;;13.85;9.88;;;4.10;97.10;;;;;;5031928;28;20095;-69
2022/03/11 03:43:15;;;;;;;16.23;10.48;;;4.10;97.70;;;;;;5031850;28;20042;-69
2022/03/11 03:45:41;;;;;;;17.27;11.50;;;4.10;98.00;;;;;;5030843;28;20037;-69
2022/03/11 03:48:06;;;;;;;12.68;9.27;;;4.10;98.30;;;;;;5031031;28;20037;-69
2022/03/11 03:50:32;;;;;;;15.50;10.57;;;4.10;98.50;;;;;;5030650;28;20056;-69
2022/03/11 03:52:58;;;;;;;14.68;9.73;;;4.10;99.10;;;;;;5014173;28;20088;-69
2022/03/11 03:55:24;;;;;;;16.95;10.32;;;4.00;99.40;;;;;;5030657;28;20049;-69
2022/03/11 03:57:50;;;;;;;15.82;10.38;;;4.00;99.40;;;;;;5030628;28;20115;-69
2022/03/11 04:00:16;;;;;;;18.60;10.98;;;4.00;99.90;;;;;;5028361;28;20077;-69
2022/03/11 04:02:49;;;;;;;16.90;10.35;;;4.00;99.90;;;;;;5047680;28;20037;-69
2022/03/11 04:05:16;;;;;;;18.63;10.65;;;4.00;99.90;;;;;;5030794;28;20045;-69
2022/03/11 04:07:44;;;;;;;19.45;10.95;;;4.00;99.90;;;;;;5030805;28;20077;-69
2022/03/11 04:10:11;;;;;;;17.95;11.57;;;4.00;99.90;;;;;;5027615;28;20046;-69
2022/03/11 04:12:37;;;;;;;18.15;12.10;;;4.00;99.90;;;;;;5030659;28;20099;-68
2022/03/11 04:15:04;;;;;;;18.83;11.27;;;3.90;99.90;;;;;;5030435;28;20037;-69
2022/03/11 04:17:30;;;;;;;17.73;11.52;;;3.90;99.90;;;;;;5030424;28;20041;-68
2022/03/11 04:19:55;;;;;;;19.02;11.60;;;3.90;99.90;;;;;;5063826;28;20532;-69
2022/03/11 04:22:21;;;;;;;17.95;10.70;;;3.90;99.90;;;;;;5033705;28;20052;-69
2022/03/11 04:24:47;;;;;;;15.93;11.57;;;3.80;99.90;;;;;;5034648;28;20438;-69
2022/03/11 04:27:13;;;;;;;20.10;11.98;;;3.80;99.90;;;;;;5038057;28;20094;-69
2022/03/11 04:29:39;;;;;;;18.70;11.05;;;3.80;99.90;;;;;;5085429;28;20041;-69
2022/03/11 04:32:05;;;;;;;16.52;11.55;;;3.80;99.90;;;;;;5087670;28;20057;-69
2022/03/11 04:34:31;;;;;;;19.05;11.95;;;3.80;99.90;;;;;;5054479;28;20048;-69
2022/03/11 04:36:57;;;;;;;16.10;10.98;;;3.70;99.90;;;;;;5054255;28;20045;-69
2022/03/11 04:39:26;;;;;;;17.90;11.38;;;3.70;99.90;;;;;;5087683;28;20397;-69
2022/03/11 04:41:56;;;;;;;24.75;12.50;;;3.70;99.90;;;;;;5053771;28;20041;-69
2022/03/11 04:44:22;;;;;;;25.05;13.13;;;3.70;99.90;;;;;;5037325;28;20045;-69
2022/03/11 04:46:49;;;;;;;17.35;12.55;;;3.60;99.90;;;;;;5070807;28;20048;-69
2022/03/11 04:49:16;;;;;;;18.50;11.82;;;3.60;99.90;;;;;;5053929;28;20049;-69
2022/03/11 04:51:42;;;;;;;19.45;11.15;;;3.60;99.90;;;;;;5055090;28;20068;-69
2022/03/11 04:54:08;;;;;;;19.25;12.77;;;3.60;99.90;;;;;;5087278;28;20080;-69
2022/03/11 04:56:37;;;;;;;18.42;12.40;;;3.60;99.90;;;;;;5053684;28;20040;-69
2022/03/11 04:59:03;;;;;;;17.13;11.57;;;3.60;99.90;;;;;;5051862;28;20045;-69
2022/03/11 05:01:29;;;;;;;21.35;13.32;;;3.50;99.90;;;;;;5087173;28;20056;-69
2022/03/11 05:03:55;;;;;;;17.05;10.77;;;3.60;99.90;;;;;;5053597;28;20053;-68
2022/03/11 05:06:21;;;;;;;20.48;11.60;;;3.50;99.90;;;;;;5070451;28;20041;-69
2022/03/11 05:08:46;;;;;;;18.75;12.18;;;3.50;99.90;;;;;;5087308;28;20124;-69
2022/03/11 05:11:12;;;;;;;21.67;13.52;;;3.50;99.90;;;;;;5053406;28;20473;-69
2022/03/11 05:13:38;;;;;;;21.13;13.00;;;3.50;99.90;;;;;;5087368;28;20045;-69
2022/03/11 05:16:05;;;;;;;17.35;11.80;;;3.50;99.90;;;;;;5086903;28;20608;-69
2022/03/11 05:18:30;;;;;;;21.17;12.90;;;3.50;99.90;;;;;;5053411;28;20445;-69
2022/03/11 05:20:56;;;;;;;18.92;12.68;;;3.40;99.90;;;;;;5086732;28;20131;-69
2022/03/11 05:23:22;;;;;;;21.13;12.48;;;3.40;99.90;;;;;;5054459;28;20032;-69
2022/03/11 05:25:49;;;;;;;19.17;12.13;;;3.40;99.90;;;;;;5053162;28;20083;-69
2022/03/11 05:28:15;;;;;;;22.38;12.75;;;3.40;99.90;;;;;;5023355;28;20045;-70
2022/03/11 05:30:41;;;;;;;18.88;12.88;;;3.40;99.90;;;;;;5033189;28;20075;-69
2022/03/11 05:33:07;;;;;;;22.05;13.23;;;3.40;99.90;;;;;;5048605;28;20152;-70
2022/03/11 05:35:33;;;;;;;23.10;14.10;;;3.40;99.90;;;;;;5034343;28;20632;-69
2022/03/11 05:37:59;;;;;;;20.33;11.88;;;3.40;99.90;;;;;;5033290;28;20045;-69
2022/03/11 05:40:25;;;;;;;17.23;11.43;;;3.40;99.90;;;;;;5032975;28;20129;-69
2022/03/11 05:42:51;;;;;;;21.10;13.60;;;3.30;99.90;;;;;;5032890;28;20037;-68
2022/03/11 05:45:17;;;;;;;21.35;13.32;;;3.30;99.90;;;;;;5033124;28;20034;-69
2022/03/11 05:47:43;;;;;;;25.25;15.23;;;3.30;99.90;;;;;;5066123;28;20052;-69
2022/03/11 05:50:10;;;;;;;21.73;12.30;;;3.30;99.90;;;;;;5033160;28;20037;-69
2022/03/11 05:52:41;;;;;;;19.33;13.05;;;3.30;99.90;;;;;;5032955;28;20497;-69
2022/03/11 05:55:08;;;;;;;20.10;11.95;;;3.30;99.90;;;;;;5066083;28;20080;-69
2022/03/11 05:57:34;;;;;;;20.13;13.55;;;3.30;99.90;;;;;;5066022;28;20513;-69
2022/03/11 06:00:01;;;;;;;21.10;12.82;;;3.20;99.90;;;;;;5030269;28;20128;-69
2022/03/11 06:02:26;;;;;;;22.55;13.70;;;3.30;99.90;;;;;;5032400;28;20128;-69
2022/03/11 06:04:52;;;;;;;22.42;13.23;;;3.20;99.90;;;;;;5033788;28;20553;-69
2022/03/11 06:07:19;;;;;;;20.95;13.73;;;3.30;99.90;;;;;;5032580;28;20397;-69
2022/03/11 06:09:46;;;;;;;23.33;13.98;;;3.20;99.90;;;;;;5033878;28;20037;-69
2022/03/11 06:12:12;;;;;;;20.67;13.07;;;3.20;99.90;;;;;;5032285;28;20041;-70
2022/03/11 06:14:37;;;;;;;24.23;14.63;;;3.20;99.90;;;;;;5033615;28;20041;-69
2022/03/11 06:17:04;;;;;;;19.67;13.18;;;3.20;99.90;;;;;;5032225;28;20456;-70
2022/03/11 06:19:29;;;;;;;24.42;14.98;;;3.20;99.90;;;;;;5065399;28;20576;-69
2022/03/11 06:21:57;;;;;;;24.20;13.15;;;3.20;99.90;;;;;;5031941;28;20141;-69
2022/03/11 06:24:23;;;;;;;19.98;13.32;;;3.20;99.90;;;;;;5033616;28;20132;-70
2022/03/11 06:26:49;;;;;;;24.40;14.45;;;3.20;99.90;;;;;;5032293;28;20033;-69
2022/03/11 06:29:15;;;;;;;23.63;13.32;;;3.20;99.90;;;;;;5050675;28;20040;-69
2022/03/11 06:31:41;;;;;;;24.38;14.43;;;3.20;99.90;;;;;;5053533;28;20051;-69
2022/03/11 06:34:07;;;;;;;25.20;13.80;;;3.20;99.90;;;;;;5085388;28;20044;-69
2022/03/11 06:36:34;;;;;;;23.25;14.23;;;3.20;99.90;;;;;;5053109;28;20044;-69
2022/03/11 06:39:00;;;;;;;23.67;15.65;;;3.30;99.90;;;;;;5085167;28;20045;-69
2022/03/11 06:41:26;;;;;;;25.85;14.32;;;3.30;99.90;;;;;;5085269;28;20045;-69
2022/03/11 06:43:51;;;;;;;23.20;14.02;;;3.40;99.90;;;;;;5084876;28;20045;-69
2022/03/11 06:46:17;;;;;;;21.40;13.02;;;3.40;99.90;;;;;;5085362;28;20099;-71
2022/03/11 06:48:43;;;;;;;23.10;13.20;;;3.50;99.90;;;;;;5085340;28;20041;-71
2022/03/11 06:51:09;;;;;;;24.20;14.52;;;3.60;99.90;;;;;;5085078;28;20394;-68
2022/03/11 06:53:36;;;;;;;24.23;14.90;;;3.70;99.90;;;;;;5051760;28;20045;-71
2022/03/11 06:56:02;;;;;;;24.73;14.45;;;3.80;99.90;;;;;;5051552;28;20049;-69
2022/03/11 06:58:28;;;;;;;22.52;14.93;;;3.90;99.90;;;;;;5050723;28;20036;-70
2022/03/11 07:00:54;;;;;;;25.73;15.27;;;4.10;99.90;;;;;;5051373;28;20041;-72
2022/03/11 07:03:20;;;;;;;22.98;14.27;;;4.10;99.90;;;;;;5051200;28;20048;-71
2022/03/11 07:05:46;;;;;;;25.60;14.43;;;4.20;99.90;;;;;;5051300;28;20045;-71
2022/03/11 07:08:14;;;;;;;23.38;14.95;;;4.30;99.90;;;;;;5084985;28;20155;-71
2022/03/11 07:10:40;;;;;;;23.90;14.68;;;4.30;99.90;;;;;;5085111;28;20131;-72
2022/03/11 07:13:05;;;;;;;23.73;15.07;;;4.40;99.90;;;;;;5051176;28;20187;-70
2022/03/11 07:15:31;;;;;;;25.45;14.90;;;4.40;99.90;;;;;;5084994;28;20109;-73
2022/03/11 07:17:57;;;;;;;24.05;15.80;;;4.40;99.90;;;;;;5067578;28;20052;-71
2022/03/11 07:20:23;;;;;;;24.33;14.52;;;4.40;99.90;;;;;;5050886;28;20124;-70
2022/03/11 07:22:49;;;;;;;23.38;14.38;;;4.40;99.90;;;;;;5067589;28;20151;-69
2022/03/11 07:25:17;;;;;;;20.52;13.20;;;4.40;99.90;;;;;;5084592;28;20052;-69
2022/03/11 07:27:45;;;;;;;22.85;15.43;;;4.50;99.90;;;;;;5050885;28;20049;-70
2022/03/11 07:30:12;;;;;;;23.02;14.32;;;4.60;99.90;;;;;;5049222;28;20067;-71
2022/03/11 07:32:39;;;;;;;21.13;14.00;;;4.60;99.90;;;;;;5050182;28;20048;-69
2022/03/11 07:35:05;;;;;;;25.08;15.05;;;4.60;99.90;;;;;;5051200;28;20079;-69
2022/03/11 07:37:31;;;;;;;22.45;14.98;;;4.60;99.90;;;;;;5051389;28;20045;-70
2022/03/11 07:39:57;;;;;;;22.27;12.93;;;4.70;99.90;;;;;;5052833;28;20037;-69
2022/03/11 07:42:22;;;;;;;23.85;15.52;;;4.70;99.90;;;;;;5046926;28;20041;-69
2022/03/11 07:44:48;;;;;;;22.48;14.10;;;4.80;99.90;;;;;;5050941;28;20036;-69
2022/03/11 07:47:14;;;;;;;23.85;16.80;;;4.80;99.90;;;;;;5051358;28;20045;-71
2022/03/11 07:49:41;;;;;;;25.42;14.18;;;4.90;99.90;;;;;;5050747;28;20441;-71
2022/03/11 07:52:14;;;;;;;22.38;14.40;;;5.00;99.90;;;;;;5051172;28;20090;-69
2022/03/11 07:54:40;;;;;;;19.33;13.38;;;5.10;99.90;;;;;;5034946;28;20072;-69
2022/03/11 07:57:06;;;;;;;21.90;12.13;;;5.30;99.90;;;;;;5052414;28;20068;-70
2022/03/11 07:59:33;;;;;;;25.58;15.00;;;5.40;99.90;;;;;;5047002;28;20069;-69
2022/03/11 08:01:59;;;;;;;21.48;13.82;;;5.50;99.90;;;;;;5051533;28;20524;-69
2022/03/11 08:04:25;;;;;;;21.05;13.75;;;5.60;99.90;;;;;;5052832;28;20045;-69
2022/03/11 08:06:51;;;;;;;22.00;14.13;;;5.70;99.90;;;;;;5052775;28;20555;-70
2022/03/11 08:09:17;;;;;;;25.95;14.90;;;5.90;99.90;;;;;;5052587;28;20580;-69
2022/03/11 08:11:43;;;;;;;24.55;14.93;;;6.00;99.90;;;;;;5051259;28;20048;-71
2022/03/11 08:14:08;;;;;;;20.17;13.82;;;6.10;99.90;;;;;;5051189;28;20048;-72
2022/03/11 08:16:34;;;;;;;21.38;14.40;;;6.30;99.90;;;;;;5051462;28;20044;-71
2022/03/11 08:19:02;;;;;;;21.65;14.18;;;6.60;99.90;;;;;;5051041;28;20057;-71
2022/03/11 08:21:27;;;;;;;24.52;14.75;;;7.00;99.90;;;;;;5051096;28;20056;-70
2022/03/11 08:23:53;;;;;;;23.90;13.95;;;7.20;99.80;;;;;;5052489;28;20036;-70
2022/03/11 08:26:19;;;;;;;20.88;13.35;;;7.40;99.20;;;;;;5052625;28;20037;-72
2022/03/11 08:28:45;;;;;;;21.75;14.02;;;8.00;97.80;;;;;;5049112;28;20044;-72
2022/03/11 08:31:11;;;;;;;19.55;13.63;;;8.60;96.60;;;;;;5051025;28;20044;-70
2022/03/11 08:33:39;;;;;;;20.88;13.15;;;9.00;94.30;;;;;;5052572;28;20103;-70
2022/03/11 08:36:06;;;;;;;20.70;15.00;;;9.20;92.80;;;;;;5052101;28;20045;-70
2022/03/11 08:38:31;;;;;;;19.73;12.45;;;9.40;92.40;;;;;;5052392;28;20036;-72
2022/03/11 08:40:58;;;;;;;19.42;12.30;;;9.60;90.80;;;;;;5050883;28;20045;-70
2022/03/11 08:43:24;;;;;;;21.40;14.10;;;9.80;88.20;;;;;;5050930;28;20102;-72
2022/03/11 08:45:50;;;;;;;21.02;13.80;;;9.80;85.90;;;;;;5050977;28;20037;-70
2022/03/11 08:48:16;;;;;;;20.52;13.30;;;9.90;82.90;;;;;;5051054;28;20044;-72
2022/03/11 08:50:42;;;;;;;21.95;14.68;;;10.00;82.20;;;;;;5051169;28;20041;-69
2022/03/11 08:53:08;;;;;;;19.77;13.90;;;10.00;80.30;;;;;;5050931;28;20458;-70
2022/03/11 08:55:34;;;;;;;19.17;13.70;;;10.10;78.50;;;;;;5034256;28;20095;-69
2022/03/11 08:57:59;;;;;;;22.02;14.18;;;10.40;78.90;;;;;;5052262;28;20074;-70
2022/03/11 09:00:25;;;;;;;22.55;14.55;;;10.70;77.40;;;;;;5048582;28;20056;-70
2022/03/11 09:02:51;;;;;;;20.77;14.35;;;10.90;75.70;;;;;;5050923;28;20041;-72
2022/03/11 09:05:20;;;;;;;20.00;14.18;;;11.00;72.50;;;;;;5050731;28;20044;-71
2022/03/11 09:07:48;;;;;;;16.70;12.52;;;11.10;74.20;;;;;;5053133;28;20062;-71
2022/03/11 09:10:14;;;;;;;18.75;13.98;;;11.30;72.60;;;;;;5055290;28;20163;-72
2022/03/11 09:12:41;;;;;;;18.02;11.05;;;11.50;72.30;;;;;;5054432;28;20459;-71
2022/03/11 09:15:08;;;;;;;20.15;14.85;;;11.60;68.30;;;;;;5054265;28;20041;-70
2022/03/11 09:17:34;;;;;;;18.80;12.43;;;11.70;70.00;;;;;;5055544;28;20033;-72
2022/03/11 09:20:03;;;;;;;19.13;14.52;;;11.80;68.60;;;;;;5037529;28;20037;-70
2022/03/11 09:22:33;;;;;;;18.23;13.65;;;11.90;67.80;;;;;;5037517;28;20072;-71
2022/03/11 09:25:01;;;;;;;19.90;13.95;;;11.90;67.00;;;;;;5054175;28;20083;-72
2022/03/11 09:27:29;;;;;;;18.58;11.95;;;12.00;66.60;;;;;;5054218;28;20427;-71
2022/03/11 09:29:55;;;;;;;19.30;13.80;;;12.10;65.70;;;;;;5085359;28;20496;-72
2022/03/11 09:32:21;;;;;;;19.55;12.80;;;12.10;64.10;;;;;;5071035;28;20044;-70
2022/03/11 09:34:47;;;;;;;19.55;14.85;;;12.20;64.50;;;;;;5055237;28;20408;-71
2022/03/11 09:37:13;;;;;;;21.33;14.77;;;12.40;65.20;;;;;;5087506;28;20098;-71
2022/03/11 09:39:39;;;;;;;19.15;14.68;;;12.50;64.30;;;;;;5037210;28;20037;-70
2022/03/11 09:42:06;;;;;;;19.75;13.82;;;12.70;64.90;;;;;;5055005;28;20052;-72
2022/03/11 09:44:32;;;;;;;20.35;14.90;;;12.80;63.50;;;;;;5054071;28;20041;-70
2022/03/11 09:46:58;;;;;;;16.73;12.95;;;12.90;62.90;;;;;;5053769;28;20091;-70
2022/03/11 09:49:25;;;;;;;20.77;14.68;;;13.10;62.70;;;;;;5053634;28;20041;-72
2022/03/11 09:51:51;;;;;;;19.65;14.10;;;13.20;61.40;;;;;;5053999;28;20476;-73
2022/03/11 09:54:17;;;;;;;21.50;14.80;;;13.20;60.90;;;;;;5054788;28;20084;-72
2022/03/11 09:56:44;;;;;;;19.55;14.10;;;13.10;60.10;;;;;;5054755;28;20112;-72
2022/03/11 09:59:12;;;;;;;19.73;15.32;;;13.20;60.50;;;;;;5051373;28;20499;-70
2022/03/11 10:01:42;;;;;;;19.98;15.13;;;13.30;61.30;;;;;;5086881;28;20044;-72
2022/03/11 10:04:09;;;;;;;18.13;12.88;;;13.50;60.50;;;;;;5054646;28;20548;-71
2022/03/11 10:06:42;;;;;;;20.23;14.40;;;13.70;59.40;;;;;;5053526;28;20456;-71
2022/03/11 10:09:33;;;;;;;19.30;15.50;;;13.60;58.40;;;;;;5086961;28;20033;-71
2022/03/11 10:12:00;;;;;;;20.65;14.18;;;13.70;59.00;;;;;;5050687;28;20174;-69
2022/03/11 10:14:34;;;;;;;16.98;12.00;;;13.90;59.10;;;;;;5053146;28;20106;-71
2022/03/11 10:17:01;;;;;;;20.88;15.60;;;13.80;56.40;;;;;;5070013;28;20477;-70
2022/03/11 10:19:27;;;;;;;19.85;15.00;;;13.90;58.60;;;;;;5052234;28;20056;-72
2022/03/11 10:21:57;;;;;;;20.83;15.40;;;14.10;59.40;;;;;;5086448;28;20060;-70
2022/03/11 10:24:23;;;;;;;21.00;15.25;;;14.30;58.70;;;;;;5054230;28;20124;-70
2022/03/11 10:26:52;;;;;;;19.85;14.45;;;14.50;58.30;;;;;;5086751;28;20167;-71
2022/03/11 10:29:19;;;;;;;19.65;14.75;;;14.60;57.30;;;;;;5071730;28;20124;-71
2022/03/11 10:31:48;;;;;;;20.00;14.93;;;14.60;56.70;;;;;;5053153;28;20139;-73
2022/03/11 10:34:15;;;;;;;19.17;14.30;;;14.50;54.30;;;;;;5054216;28;20041;-71
2022/03/11 10:36:58;;;;;;;21.33;15.07;;;14.50;56.70;;;;;;5053875;28;20052;-70
2022/03/11 10:39:28;;;;;;;19.60;14.18;;;14.80;58.10;;;;;;5053021;28;20385;-72
2022/03/11 10:41:58;;;;;;;20.55;15.50;;;15.00;54.90;;;;;;5053739;28;20045;-70
2022/03/11 10:44:29;;;;;;;21.75;14.95;;;15.10;55.50;;;;;;5052821;28;20033;-70
2022/03/11 10:46:56;;;;;;;15.88;12.55;;;15.30;54.80;;;;;;5052767;28;20440;-72
2022/03/11 10:49:32;;;;;;;19.88;12.60;;;15.40;52.00;;;;;;5052784;28;20350;-72
2022/03/11 10:51:59;;;;;;;20.80;13.00;;;15.20;50.50;;;;;;5049980;28;20037;-70
2022/03/11 10:54:27;;;;;;;20.10;14.48;;;14.90;51.30;;;;;;5052387;28;20059;-70
2022/03/11 10:56:54;;;;;;;15.88;12.20;;;14.90;50.80;;;;;;5052573;28;20401;-71
2022/03/11 10:59:24;;;;;;;19.75;14.05;;;15.00;51.80;;;;;;5050264;28;20377;-70
2022/03/11 11:01:54;;;;;;;18.25;12.88;;;15.20;52.00;;;;;;5035509;28;20563;-68
2022/03/11 11:04:20;;;;;;;18.27;13.50;;;15.30;51.90;;;;;;5052184;28;20040;-72
2022/03/11 11:06:46;;;;;;;19.10;14.18;;;15.30;50.20;;;;;;5052074;28;20500;-71
2022/03/11 11:09:14;;;;;;;20.83;13.88;;;15.20;51.00;;;;;;5052237;28;20033;-72
2022/03/11 11:11:42;;;;;;;22.35;15.77;;;15.20;50.60;;;;;;5052010;28;20048;-71
2022/03/11 11:14:09;;;;;;;22.65;15.13;;;15.30;51.60;;;;;;5053271;28;20053;-72
2022/03/11 11:16:40;;;;;;;16.88;11.57;;;15.50;52.20;;;;;;5052265;28;20041;-72
2022/03/11 11:19:20;;;;;;;19.13;14.07;;;15.80;50.70;;;;;;5052764;28;20135;-72
2022/03/11 11:21:51;;;;;;;21.95;15.52;;;15.80;48.90;;;;;;5048948;28;20059;-72
2022/03/11 11:24:21;;;;;;;18.42;14.82;;;15.80;50.20;;;;;;5052193;28;20373;-71
2022/03/11 11:26:53;;;;;;;17.10;14.20;;;16.10;51.40;;;;;;5051733;28;20492;-71
2022/03/11 11:29:25;;;;;;;19.98;14.82;;;16.40;51.40;;;;;;5050797;28;20036;-71
2022/03/11 11:31:52;;;;;;;20.40;14.43;;;16.70;51.50;;;;;;5052012;28;20087;-71
2022/03/11 11:34:29;;;;;;;22.00;14.63;;;17.00;51.40;;;;;;5051968;28;20128;-70
2022/03/11 11:36:55;;;;;;;18.38;15.45;;;17.00;49.50;;;;;;5085140;28;20100;-72
2022/03/11 11:39:34;;;;;;;20.63;15.40;;;17.10;49.90;;;;;;5051803;28;20041;-71
2022/03/11 11:42:06;;;;;;;24.33;15.50;;;17.10;49.80;;;;;;5052772;28;20049;-71
2022/03/11 11:44:35;;;;;;;20.50;14.75;;;17.10;49.60;;;;;;5051691;28;20045;-72
2022/03/11 11:47:11;;;;;;;17.90;14.02;;;16.80;48.50;;;;;;5051604;28;20041;-72
2022/03/11 11:49:51;;;;;;;20.27;13.82;;;16.50;48.70;;;;;;5085426;28;20041;-72
2022/03/11 11:52:35;;;;;;;22.08;16.83;;;16.40;47.90;;;;;;5085167;28;20060;-70
2022/03/11 11:55:19;;;;;;;20.42;16.02;;;16.20;49.30;;;;;;5085293;28;20041;-71
2022/03/11 11:57:46;;;;;;;24.67;15.95;;;16.10;49.70;;;;;;5051495;28;20439;-71
2022/03/11 12:00:33;;;;;;;21.10;14.55;;;16.10;50.30;;;;;;5049406;28;20148;-72
2022/03/11 12:02:59;;;;;;;19.60;15.63;;;16.10;49.30;;;;;;5050283;28;20048;-71
2022/03/11 12:05:45;;;;;;;19.27;16.17;;;16.20;50.50;;;;;;5051434;28;20106;-70
2022/03/11 12:08:40;;;;;;;20.40;16.10;;;16.30;50.70;;;;;;5049251;28;20048;-71
2022/03/11 12:11:06;;;;;;;20.90;16.05;;;16.30;49.10;;;;;;5040316;28;20535;-72
2022/03/11 12:13:36;;;;;;;20.58;16.13;;;16.10;49.30;;;;;;5051237;28;20033;-70
2022/03/11 12:16:23;;;;;;;21.33;16.17;;;15.80;49.80;;;;;;5034396;28;20179;-71
2022/03/11 12:18:49;;;;;;;18.80;16.20;;;15.80;50.00;;;;;;5050894;28;20143;-70
2022/03/11 12:21:40;;;;;;;21.73;16.60;;;15.60;51.40;;;;;;5050296;28;20178;-69
2022/03/11 12:24:34;;;;;;;21.15;15.65;;;16.00;51.30;;;;;;5050662;28;20041;-70
2022/03/11 12:27:01;;;;;;;19.95;15.65;;;16.30;51.10;;;;;;5050302;28;20044;-72
2022/03/11 12:29:30;;;;;;;23.05;17.35;;;16.40;50.50;;;;;;5049398;28;20116;-68
2022/03/11 12:31:57;;;;;;;22.13;15.73;;;16.40;49.20;;;;;;5083946;28;20040;-71
2022/03/11 12:34:24;;;;;;;19.77;15.95;;;16.60;49.50;;;;;;5050334;28;20049;-69
2022/03/11 12:36:50;;;;;;;22.73;17.58;;;16.60;50.10;;;;;;5066777;28;20056;-69